createdAt,value
2019-02-26T00:00:52.011Z,13.63
2019-02-26T00:03:24.117Z,13.50
2019-02-26T00:05:54.386Z,13.03
2019-02-26T00:08:26.611Z,13.67
2019-02-26T00:10:58.590Z,13.20
2019-02-26T00:13:27.682Z,15.60
2019-02-26T00:15:58.097Z,13.87
2019-02-26T00:18:27.586Z,14.57
2019-02-26T00:20:59.033Z,14.83
2019-02-26T00:23:30.040Z,14.17
2019-02-26T00:25:59.550Z,12.83
2019-02-26T00:28:29.106Z,13.93
2019-02-26T00:30:59.938Z,14.80
2019-02-26T00:33:30.473Z,13.53
2019-02-26T00:35:59.941Z,14.20
2019-02-26T00:38:29.460Z,12.80
2019-02-26T00:41:00.012Z,13.70
2019-02-26T00:43:30.638Z,14.30
2019-02-26T00:46:03.210Z,14.80
2019-02-26T00:48:33.648Z,13.40
2019-02-26T00:51:03.919Z,16.67
2019-02-26T00:53:33.770Z,14.10
2019-02-26T00:56:05.592Z,13.83
2019-02-26T00:58:37.132Z,15.13
2019-02-26T01:01:08.246Z,13.80
2019-02-26T01:03:37.566Z,15.43
2019-02-26T01:06:07.981Z,14.77
2019-02-26T01:08:38.011Z,15.90
2019-02-26T01:11:09.019Z,14.53
2019-02-26T01:13:38.491Z,14.47
2019-02-26T01:16:08.047Z,14.83
2019-02-26T01:18:37.519Z,15.20
2019-02-26T01:21:07.033Z,16.53
2019-02-26T01:23:36.511Z,15.37
2019-02-26T01:26:05.967Z,14.83
2019-02-26T01:28:35.442Z,15.73
2019-02-26T01:31:05.745Z,15.17
2019-02-26T01:33:36.563Z,15.83
2019-02-26T01:36:06.346Z,16.07
2019-02-26T01:38:39.431Z,16.03
2019-02-26T01:41:08.665Z,19.40
2019-02-26T01:43:38.133Z,16.40
2019-02-26T01:46:09.414Z,19.07
2019-02-26T01:48:39.570Z,16.93
2019-02-26T01:51:10.425Z,18.97
2019-02-26T01:53:42.172Z,18.33
2019-02-26T01:56:11.409Z,17.10
2019-02-26T01:58:40.868Z,19.07
2019-02-26T02:01:14.016Z,19.23
2019-02-26T02:03:44.018Z,19.90
2019-02-26T02:06:14.193Z,17.00
2019-02-26T02:08:45.927Z,19.20
2019-02-26T02:11:15.967Z,16.60
2019-02-26T02:13:45.518Z,18.30
2019-02-26T02:16:15.152Z,16.30
2019-02-26T04:01:18.693Z,18.93
2019-02-26T04:03:47.770Z,16.43
2019-02-26T04:06:17.548Z,16.07
2019-02-26T04:08:48.572Z,18.40
2019-02-26T04:11:20.006Z,16.17
2019-02-26T04:13:52.160Z,20.80
2019-02-26T04:16:20.744Z,16.93
2019-02-26T04:18:52.033Z,16.30
2019-02-26T04:21:21.849Z,18.23
2019-02-26T04:23:51.314Z,17.20
2019-02-26T04:26:32.255Z,19.60
2019-02-26T04:29:18.850Z,17.13
2019-02-26T04:32:06.398Z,19.23
2019-02-26T04:34:39.051Z,16.97
2019-02-26T04:37:27.379Z,20.83
2019-02-26T04:40:11.914Z,17.20
2019-02-26T04:42:52.812Z,19.83
2019-02-26T04:45:52.234Z,16.67
2019-02-26T04:48:29.232Z,19.60
2019-02-26T04:50:59.076Z,18.03
2019-02-26T04:53:29.344Z,20.17
2019-02-26T04:56:02.829Z,18.50
2019-02-26T04:58:31.164Z,19.70
2019-02-26T05:01:00.642Z,17.40
2019-02-26T05:03:30.380Z,20.50
2019-02-26T05:06:02.079Z,17.60
2019-02-26T05:08:32.096Z,20.67
2019-02-26T05:11:02.208Z,18.17
2019-02-26T05:13:32.620Z,18.53
2019-02-26T05:16:02.860Z,17.40
2019-02-26T05:18:34.509Z,21.07
2019-02-26T05:21:05.244Z,18.20
2019-02-26T05:23:34.660Z,21.07
2019-02-26T05:26:05.609Z,17.03
2019-02-26T05:28:37.657Z,19.27
2019-02-26T05:31:08.948Z,16.87
2019-02-26T05:33:38.214Z,19.57
2019-02-26T05:36:09.476Z,17.00
2019-02-26T05:38:39.197Z,19.70
2019-02-26T05:41:08.669Z,17.73
2019-02-26T05:43:38.379Z,18.87
2019-02-26T05:46:07.860Z,19.03
2019-02-26T05:48:39.970Z,18.53
2019-02-26T05:51:11.419Z,20.50
2019-02-26T05:53:40.757Z,18.50
2019-02-26T05:56:11.628Z,19.03
2019-02-26T05:58:44.167Z,20.20
2019-02-26T06:01:15.733Z,18.70
2019-02-26T06:03:46.742Z,18.60
2019-02-26T06:06:15.684Z,21.80
2019-02-26T06:08:45.456Z,17.93
2019-02-26T06:11:16.991Z,21.27
2019-02-26T06:13:46.194Z,19.67
2019-02-26T06:16:15.675Z,20.43
2019-02-26T06:18:46.537Z,19.00
2019-02-26T06:21:18.423Z,20.13
2019-02-26T06:23:52.064Z,17.77
2019-02-26T06:26:21.616Z,18.37
2019-02-26T06:28:52.937Z,17.40
2019-02-26T06:31:24.963Z,16.47
2019-02-26T06:33:54.211Z,16.17
2019-02-26T06:36:25.860Z,16.50
2019-02-26T06:38:56.423Z,15.80
2019-02-26T06:41:26.403Z,16.43
2019-02-26T06:43:56.136Z,15.47
2019-02-26T06:46:27.188Z,15.17
2019-02-26T06:48:57.112Z,16.67
2019-02-26T06:51:28.297Z,16.83
2019-02-26T06:53:59.192Z,16.83
2019-02-26T06:56:30.187Z,18.60
2019-02-26T06:59:03.613Z,18.17
2019-02-26T07:01:35.265Z,19.33
2019-02-26T07:04:05.427Z,18.90
2019-02-26T07:06:34.985Z,17.77
2019-02-26T07:09:05.196Z,19.37
2019-02-26T07:11:36.201Z,19.63
2019-02-26T07:14:08.040Z,19.80
2019-02-26T07:16:39.786Z,22.33
2019-02-26T07:19:09.127Z,20.50
2019-02-26T07:21:40.631Z,22.33
2019-02-26T07:24:10.967Z,20.93
2019-02-26T07:26:41.743Z,21.37
2019-02-26T07:29:13.161Z,21.77
2019-02-26T07:31:43.160Z,21.77
2019-02-26T07:34:13.015Z,20.23
2019-02-26T07:36:43.357Z,22.23
2019-02-26T07:39:15.528Z,24.40
2019-02-26T07:41:47.028Z,22.27
2019-02-26T07:44:18.651Z,22.37
2019-02-26T07:46:47.298Z,21.57
2019-02-26T07:49:16.779Z,23.90
2019-02-26T07:51:46.265Z,21.83
2019-02-26T07:54:15.739Z,20.47
2019-02-26T07:56:45.223Z,21.90
2019-02-26T07:59:15.159Z,18.30
2019-02-26T08:01:45.331Z,18.60
2019-02-26T08:04:18.254Z,18.10
2019-02-26T08:06:47.413Z,17.63
2019-02-26T08:09:18.931Z,18.57
2019-02-26T08:11:49.011Z,17.30
2019-02-26T08:14:20.879Z,18.43
2019-02-26T08:16:53.606Z,18.60
2019-02-26T08:19:21.031Z,19.47
2019-02-26T08:21:52.637Z,18.70
2019-02-26T08:24:24.505Z,20.00
2019-02-26T08:26:52.946Z,19.87
2019-02-26T08:29:24.555Z,19.57
2019-02-26T08:31:54.519Z,20.30
2019-02-26T08:34:24.755Z,20.50
2019-02-26T08:36:54.672Z,19.63
2019-02-26T08:39:24.571Z,20.63
2019-02-26T08:42:06.230Z,20.90
2019-02-26T08:44:35.709Z,20.10
2019-02-26T08:47:08.778Z,21.07
2019-02-26T08:49:38.358Z,21.57
2019-02-26T08:52:08.582Z,20.60
2019-02-26T08:54:38.329Z,21.13
2019-02-26T08:57:07.827Z,20.53
2019-02-26T08:59:37.288Z,20.77
2019-02-26T09:02:07.119Z,20.37
2019-02-26T09:04:38.329Z,20.63
2019-02-26T09:07:07.793Z,20.53
2019-02-26T09:09:37.326Z,20.47
2019-02-26T09:12:06.831Z,20.70
2019-02-26T09:14:37.571Z,21.03
2019-02-26T09:17:07.480Z,21.60
2019-02-26T09:19:38.105Z,18.93
2019-02-26T09:22:11.780Z,20.57
2019-02-26T09:24:39.168Z,21.87
2019-02-26T09:27:08.728Z,21.23
2019-02-26T09:29:39.711Z,21.70
2019-02-26T09:32:11.615Z,22.13
2019-02-26T09:34:40.559Z,21.70
2019-02-26T09:37:10.433Z,21.57
2019-02-26T09:39:39.918Z,20.93
2019-02-26T09:42:09.391Z,20.53
2019-02-26T09:44:38.877Z,20.27
2019-02-26T09:47:08.439Z,19.83
2019-02-26T09:49:37.981Z,21.07
2019-02-26T09:52:07.477Z,20.97
2019-02-26T09:54:40.392Z,20.27
2019-02-26T09:57:08.148Z,21.17
2019-02-26T09:59:38.509Z,20.67
2019-02-26T10:02:08.249Z,20.50
2019-02-26T10:04:37.678Z,20.40
2019-02-26T10:07:09.438Z,20.40
2019-02-26T10:09:40.703Z,20.87
2019-02-26T10:12:12.647Z,21.73
2019-02-26T10:14:41.008Z,19.70
2019-02-26T10:17:12.387Z,20.17
2019-02-26T10:19:42.984Z,20.00
2019-02-26T10:22:13.771Z,19.23
2019-02-26T10:24:43.235Z,19.90
2019-02-26T10:27:14.606Z,20.53
2019-02-26T10:29:45.123Z,19.57
2019-02-26T10:32:15.520Z,19.27
2019-02-26T10:34:44.990Z,20.37
2019-02-26T10:37:14.474Z,20.83
2019-02-26T10:39:44.492Z,21.00
2019-02-26T10:42:18.158Z,20.70
2019-02-26T10:44:46.831Z,20.53
2019-02-26T10:47:16.307Z,20.23
2019-02-26T10:49:46.738Z,19.83
2019-02-26T10:52:19.338Z,20.03
2019-02-26T10:54:48.295Z,19.33
2019-02-26T10:57:18.023Z,20.33
2019-02-26T10:59:47.537Z,20.40
2019-02-26T11:02:17.836Z,19.07
2019-02-26T11:04:50.426Z,17.97
2019-02-26T11:07:19.426Z,18.83
2019-02-26T11:09:51.035Z,18.63
2019-02-26T11:12:22.171Z,18.83
2019-02-26T11:14:53.578Z,18.53
2019-02-26T11:17:23.654Z,20.13
2019-02-26T11:19:55.579Z,19.50
2019-02-26T11:22:27.554Z,18.60
2019-02-26T11:24:58.567Z,19.80
2019-02-26T11:27:28.111Z,19.13
2019-02-26T11:29:59.459Z,18.57
2019-02-26T11:32:30.158Z,18.60
2019-02-26T11:35:02.450Z,19.90
2019-02-26T11:37:32.079Z,18.97
2019-02-26T11:40:02.876Z,18.77
2019-02-26T11:42:32.803Z,18.83
2019-02-26T11:45:02.547Z,19.50
2019-02-26T11:47:34.465Z,19.70
2019-02-26T11:50:06.837Z,19.43
2019-02-26T11:52:36.511Z,19.77
2019-02-26T11:55:09.309Z,19.27
2019-02-26T11:57:39.853Z,19.30
2019-02-26T12:00:37.327Z,18.93
2019-02-26T12:03:05.874Z,19.40
2019-02-26T12:05:36.661Z,17.80
2019-02-26T12:08:06.528Z,16.47
2019-02-26T12:10:37.820Z,15.00
2019-02-26T12:13:07.555Z,15.10
2019-02-26T12:15:39.911Z,13.33
2019-02-26T12:18:10.174Z,13.60
2019-02-26T12:20:40.937Z,12.43
2019-02-26T12:23:13.340Z,13.00
2019-02-26T12:25:42.135Z,13.87
2019-02-26T12:28:13.839Z,14.40
2019-02-26T12:30:46.866Z,13.30
2019-02-26T12:33:16.569Z,13.60
2019-02-26T12:35:46.041Z,13.00
2019-02-26T12:38:20.606Z,14.03
2019-02-26T12:40:49.927Z,16.47
2019-02-26T12:43:19.323Z,16.73
2019-02-26T12:45:48.880Z,16.90
2019-02-26T12:48:22.102Z,18.20
2019-02-26T12:50:49.503Z,16.70
2019-02-26T12:53:20.670Z,16.27
2019-02-26T12:55:50.216Z,16.53
2019-02-26T12:58:21.323Z,16.93
2019-02-26T13:00:50.927Z,16.30
2019-02-26T13:03:22.614Z,15.73
2019-02-26T13:05:52.212Z,16.17
2019-02-26T13:08:24.215Z,16.03
2019-02-26T13:10:56.177Z,15.80
2019-02-26T13:13:24.079Z,15.73
2019-02-26T13:15:53.582Z,14.03
2019-02-26T13:18:23.041Z,14.67
2019-02-26T13:20:59.555Z,13.13
2019-02-26T13:23:23.795Z,13.00
2019-02-26T13:25:53.277Z,14.20
2019-02-26T13:28:29.388Z,13.70
2019-02-26T13:30:53.983Z,13.27
2019-02-26T13:33:32.645Z,13.10
2019-02-26T13:35:58.832Z,13.67
2019-02-26T13:38:33.968Z,12.80
2019-02-26T13:41:20.315Z,13.10
2019-02-26T13:43:28.694Z,12.57
2019-02-26T13:45:58.328Z,11.30
2019-02-26T13:48:27.816Z,11.40
2019-02-26T13:50:57.575Z,12.10
2019-02-26T13:53:27.054Z,11.03
2019-02-26T13:55:56.534Z,11.17
2019-02-26T13:58:26.012Z,11.90
2019-02-26T14:00:55.502Z,12.47
2019-02-26T14:03:24.968Z,12.53
2019-02-26T14:05:54.458Z,13.27
2019-02-26T14:08:23.975Z,12.57
2019-02-26T14:10:53.456Z,12.37
2019-02-26T14:13:23.129Z,12.70
2019-02-26T14:15:53.596Z,13.13
2019-02-26T14:18:23.062Z,12.30
2019-02-26T14:20:52.943Z,11.77
2019-02-26T14:23:22.705Z,11.47
2019-02-26T14:25:52.193Z,10.97
2019-02-26T14:28:21.743Z,11.27
2019-02-26T14:30:53.152Z,12.13
2019-02-26T14:33:22.633Z,11.17
2019-02-26T14:35:52.337Z,11.87
2019-02-26T14:38:21.839Z,11.07
2019-02-26T14:40:51.321Z,11.80
2019-02-26T14:43:20.798Z,11.67
2019-02-26T14:45:50.304Z,11.20
2019-02-26T14:48:20.757Z,11.90
2019-02-26T14:50:50.265Z,11.67
2019-02-26T14:53:19.721Z,11.67
2019-02-26T14:55:49.204Z,11.70
2019-02-26T14:58:18.846Z,12.10
2019-02-26T15:00:57.183Z,11.27
2019-02-26T15:03:19.615Z,11.00
2019-02-26T15:05:49.110Z,11.43
2019-02-26T15:08:18.586Z,10.63
2019-02-26T15:10:48.063Z,11.33
2019-02-26T15:13:17.547Z,11.20
2019-02-26T15:15:47.054Z,11.40
2019-02-26T15:18:16.522Z,12.50
2019-02-26T15:20:47.139Z,13.23
2019-02-26T15:23:16.702Z,13.10
2019-02-26T15:25:46.168Z,13.23
2019-02-26T15:28:16.018Z,13.30
2019-02-26T15:30:45.887Z,14.17
2019-02-26T15:33:15.418Z,12.93
2019-02-26T15:35:46.797Z,13.73
2019-02-26T15:38:16.106Z,13.90
2019-02-26T15:40:51.141Z,14.33
2019-02-26T15:43:20.619Z,14.73
2019-02-26T15:45:52.228Z,14.77
2019-02-26T15:48:21.255Z,13.80
2019-02-26T15:50:50.744Z,14.93
2019-02-26T15:53:23.383Z,14.80
2019-02-26T15:55:51.725Z,14.53
2019-02-26T15:58:21.205Z,15.40
2019-02-26T16:00:50.791Z,14.47
2019-02-26T16:03:20.278Z,14.37
2019-02-26T16:05:50.558Z,14.20
2019-02-26T16:08:20.233Z,14.03
2019-02-26T16:10:49.725Z,13.57
2019-02-26T16:13:19.545Z,12.67
2019-02-26T16:15:49.058Z,13.27
2019-02-26T16:18:18.527Z,47.67
2019-02-26T16:20:50.413Z,35.10
2019-02-26T16:23:20.157Z,20.03
2019-02-26T16:25:50.395Z,15.17
2019-02-26T16:28:19.874Z,14.53
2019-02-26T16:30:49.543Z,15.27
2019-02-26T16:33:19.349Z,14.63
2019-02-26T16:35:48.831Z,15.10
2019-02-26T16:38:18.306Z,13.70
2019-02-26T16:40:48.162Z,14.87
2019-02-26T16:43:17.905Z,14.40
2019-02-26T16:45:47.891Z,14.77
2019-02-26T16:48:21.349Z,15.87
2019-02-26T16:50:48.572Z,23.23
2019-02-26T16:53:18.611Z,23.63
2019-02-26T16:55:49.086Z,17.33
2019-02-26T16:58:19.599Z,17.40
2019-02-26T17:00:49.488Z,17.43
2019-02-26T17:03:19.009Z,16.53
2019-02-26T17:05:48.494Z,15.80
2019-02-26T17:08:18.007Z,17.13
2019-02-26T17:10:47.509Z,17.30
2019-02-26T17:13:16.977Z,16.90
2019-02-26T17:15:46.462Z,16.83
2019-02-26T17:18:16.251Z,16.80
2019-02-26T17:20:45.818Z,16.23
2019-02-26T17:23:15.311Z,16.77
2019-02-26T17:25:44.794Z,16.93
2019-02-26T17:28:14.267Z,16.03
2019-02-26T17:30:43.767Z,18.37
2019-02-26T17:33:14.508Z,17.07
2019-02-26T17:35:44.161Z,18.33
2019-02-26T17:38:15.448Z,18.00
2019-02-26T17:40:45.079Z,19.30
2019-02-26T17:43:14.714Z,18.27
2019-02-26T17:45:44.213Z,20.67
2019-02-26T17:48:13.710Z,20.00
2019-02-26T17:50:45.798Z,19.03
2019-02-26T17:53:14.445Z,18.07
2019-02-26T17:55:43.949Z,18.40
2019-02-26T17:58:13.542Z,18.13
2019-02-26T18:00:44.709Z,18.60
2019-02-26T18:03:14.203Z,16.53
2019-02-26T18:05:51.155Z,17.97
2019-02-26T18:08:18.796Z,16.97
2019-02-26T18:10:46.365Z,19.57
2019-02-26T18:13:15.839Z,26.90
2019-02-26T18:15:45.360Z,20.80
2019-02-26T18:18:14.846Z,18.63
2019-02-26T18:20:44.643Z,17.03
2019-02-26T18:23:14.186Z,17.00
2019-02-26T18:25:43.668Z,17.40
2019-02-26T18:28:13.198Z,17.13
2019-02-26T18:30:42.655Z,17.60
2019-02-26T18:33:12.131Z,16.93
2019-02-26T18:35:41.589Z,16.20
2019-02-26T18:38:11.077Z,16.70
2019-02-26T18:40:40.537Z,16.97
2019-02-26T18:43:11.687Z,17.20
2019-02-26T18:45:41.530Z,17.70
2019-02-26T18:48:12.648Z,17.50
2019-02-26T18:50:42.174Z,17.63
2019-02-26T18:53:13.992Z,17.53
2019-02-26T18:55:43.931Z,18.33
2019-02-26T18:58:13.787Z,16.93
2019-02-26T19:00:44.646Z,17.37
2019-02-26T19:03:14.199Z,18.10
2019-02-26T19:05:43.676Z,17.60
2019-02-26T19:08:13.186Z,17.37
2019-02-26T19:10:42.940Z,19.67
2019-02-26T19:13:12.412Z,18.43
2019-02-26T19:15:42.570Z,16.83
2019-02-26T19:18:12.555Z,16.93
2019-02-26T19:20:42.002Z,16.53
2019-02-26T19:23:11.584Z,17.40
2019-02-26T19:25:41.642Z,17.33
2019-02-26T19:28:11.688Z,17.87
2019-02-26T19:30:41.202Z,18.83
2019-02-26T19:33:10.662Z,18.17
2019-02-26T19:35:40.605Z,18.33
2019-02-26T19:38:10.375Z,18.83
2019-02-26T19:40:48.746Z,19.00
2019-02-26T19:43:18.206Z,19.47
2019-02-26T19:45:47.681Z,18.70
2019-02-26T19:48:17.175Z,19.17
2019-02-26T19:50:48.677Z,18.50
2019-02-26T19:53:18.257Z,19.90
2019-02-26T19:55:50.033Z,19.93
2019-02-26T19:58:19.911Z,19.33
2019-02-26T20:00:52.659Z,19.53
2019-02-26T20:03:20.680Z,20.47
2019-02-26T20:05:50.146Z,20.77
2019-02-26T20:08:19.622Z,21.40
2019-02-26T20:10:51.688Z,21.17
2019-02-26T20:13:20.330Z,20.70
2019-02-26T20:15:50.134Z,21.30
2019-02-26T20:18:20.975Z,24.37
2019-02-26T20:20:51.095Z,22.30
2019-02-26T20:23:20.576Z,22.90
2019-02-26T20:25:50.035Z,23.60
2019-02-26T20:28:19.515Z,24.73
2019-02-26T20:30:49.078Z,24.00
2019-02-26T20:33:18.922Z,23.60
2019-02-26T20:35:48.388Z,23.00
2019-02-26T20:38:17.870Z,24.37
2019-02-26T20:40:48.934Z,24.77
2019-02-26T20:43:18.557Z,24.80
2019-02-26T20:45:50.803Z,25.87
2019-02-26T20:48:19.477Z,24.80
2019-02-26T20:50:53.491Z,25.23
2019-02-26T20:53:20.420Z,24.77
2019-02-26T20:55:52.428Z,23.77
2019-02-26T20:58:21.061Z,25.93
2019-02-26T21:00:51.543Z,25.30
2019-02-26T21:03:21.562Z,25.30
2019-02-26T21:05:51.047Z,25.17
2019-02-26T21:08:20.519Z,26.20
2019-02-26T21:10:49.984Z,25.07
2019-02-26T21:13:19.520Z,26.77
2019-02-26T21:15:49.014Z,25.40
2019-02-26T21:18:18.475Z,26.13
2019-02-26T21:20:49.269Z,26.93
2019-02-26T21:23:18.913Z,26.27
2019-02-26T21:25:48.389Z,24.73
2019-02-26T21:28:17.851Z,24.70
2019-02-26T21:30:47.327Z,26.33
2019-02-26T21:33:16.887Z,24.90
2019-02-26T21:35:46.349Z,25.27
2019-02-26T21:38:16.206Z,26.57
2019-02-26T21:40:48.829Z,26.13
2019-02-26T21:43:16.929Z,25.90
2019-02-26T21:45:49.178Z,25.53
2019-02-26T21:48:17.588Z,24.97
2019-02-26T21:50:47.067Z,25.53
2019-02-26T21:53:16.565Z,25.60
2019-02-26T21:55:46.022Z,25.63
2019-02-26T21:58:15.501Z,27.23
2019-02-26T22:00:45.356Z,27.97
2019-02-26T22:03:15.213Z,26.10
2019-02-26T22:05:44.827Z,26.40
2019-02-26T22:08:14.627Z,24.97
2019-02-26T22:10:44.239Z,26.03
2019-02-26T22:13:14.058Z,27.60
2019-02-26T22:15:44.716Z,26.03
2019-02-26T22:18:15.013Z,28.10
2019-02-26T22:20:44.808Z,29.90
2019-02-26T22:23:14.983Z,27.30
2019-02-26T22:25:44.598Z,28.03
2019-02-26T22:28:14.182Z,30.17
2019-02-26T22:30:43.820Z,27.50
2019-02-26T22:33:13.595Z,27.27
2019-02-26T22:35:43.072Z,30.57
2019-02-26T22:38:15.230Z,27.47
2019-02-26T22:40:44.061Z,30.30
2019-02-26T22:43:14.283Z,28.60
2019-02-26T22:45:44.201Z,26.80
2019-02-26T22:48:14.239Z,27.57
2019-02-26T22:50:43.768Z,26.50
2019-02-26T22:53:13.255Z,27.10
2019-02-26T22:55:42.708Z,26.00
2019-02-26T22:58:12.179Z,27.27
2019-02-26T23:00:49.723Z,27.20
2019-02-26T23:03:19.374Z,27.37
2019-02-26T23:05:48.905Z,29.33
2019-02-26T23:08:18.383Z,30.40
2019-02-26T23:10:48.153Z,28.33
2019-02-26T23:13:17.625Z,28.57
2019-02-26T23:15:47.369Z,28.17
2019-02-26T23:18:17.328Z,30.47
2019-02-26T23:20:46.866Z,30.10
2019-02-26T23:23:16.356Z,26.60
2019-02-26T23:25:45.871Z,30.17
2019-02-26T23:28:15.353Z,27.07
2019-02-26T23:30:45.162Z,29.30
2019-02-26T23:33:15.249Z,28.73
2019-02-26T23:35:45.616Z,32.43
2019-02-26T23:38:15.338Z,29.00
2019-02-26T23:40:45.088Z,30.57
2019-02-26T23:43:14.552Z,29.10
2019-02-26T23:45:44.050Z,28.43
2019-02-26T23:48:13.513Z,33.13
2019-02-26T23:50:47.104Z,28.90
2019-02-26T23:53:14.678Z,32.20
2019-02-26T23:55:47.172Z,28.23
2019-02-26T23:58:16.953Z,30.50
